createdAt,value
2018-06-14T00:02:09.838Z,96716.75
2018-06-14T00:05:34.704Z,96715.50
2018-06-14T00:08:59.366Z,96711.67
2018-06-14T00:12:24.091Z,96717.81
2018-06-14T00:15:48.723Z,96716.91
2018-06-14T00:19:13.588Z,96718.73
2018-06-14T00:22:38.340Z,96719.30
2018-06-14T00:26:03.034Z,96719.19
2018-06-14T00:29:27.760Z,96717.08
2018-06-14T00:32:52.431Z,96709.84
2018-06-14T00:36:17.162Z,96702.77
2018-06-14T00:39:41.807Z,96706.25
2018-06-14T00:43:06.528Z,96705.86
2018-06-14T00:46:30.986Z,96703.66
2018-06-14T00:49:55.647Z,96705.87
2018-06-14T00:53:20.344Z,96702.72
2018-06-14T00:57:02.232Z,96697.62
2018-06-14T01:00:26.944Z,96698.02
2018-06-14T01:03:51.695Z,96698.31
2018-06-14T01:07:16.534Z,96696.11
2018-06-14T01:10:41.221Z,96701.19
2018-06-14T01:14:06.119Z,96699.83
2018-06-14T01:17:30.892Z,96696.44
2018-06-14T01:20:55.571Z,96694.73
2018-06-14T01:24:20.248Z,96692.37
2018-06-14T01:27:44.989Z,96686.61
2018-06-14T01:31:09.707Z,96689.88
2018-06-14T01:36:03.544Z,96680.84
2018-06-14T01:39:28.290Z,96682.22
2018-06-14T01:42:52.996Z,96678.65
2018-06-14T01:46:17.778Z,96675.57
2018-06-14T01:49:42.516Z,96671.64
2018-06-14T01:53:07.184Z,96679.17
2018-06-14T01:56:31.888Z,96684.87
2018-06-14T01:59:56.561Z,96682.45
2018-06-14T02:03:21.289Z,96672.78
2018-06-14T02:06:45.949Z,96674.37
2018-06-14T02:10:10.634Z,96668.84
2018-06-14T02:13:35.278Z,96669.08
2018-06-14T02:16:59.974Z,96671.70
2018-06-14T02:20:25.278Z,96668.94
2018-06-14T02:23:49.955Z,96663.36
2018-06-14T02:27:14.665Z,96665.34
2018-06-14T02:30:38.978Z,96666.34
2018-06-14T02:34:03.623Z,96665.80
2018-06-14T02:37:28.470Z,96666.61
2018-06-14T02:40:53.894Z,96665.97
2018-06-14T02:44:18.645Z,96667.41
2018-06-14T02:47:43.259Z,96664.84
2018-06-14T02:51:07.554Z,96659.89
2018-06-14T02:54:33.217Z,96657.27
2018-06-14T02:57:57.898Z,96657.17
2018-06-14T03:01:22.561Z,96660.25
2018-06-14T03:04:47.277Z,96654.05
2018-06-14T03:08:11.890Z,96651.73
2018-06-14T03:11:36.578Z,96651.19
2018-06-14T03:15:01.416Z,96651.72
2018-06-14T03:18:25.747Z,96651.17
2018-06-14T03:21:50.398Z,96649.52
2018-06-14T03:25:15.037Z,96639.45
2018-06-14T03:28:39.887Z,96648.28
2018-06-14T03:32:04.634Z,96645.72
2018-06-14T03:35:29.394Z,96648.01
2018-06-14T03:38:54.147Z,96647.91
2018-06-14T03:42:18.826Z,96648.07
2018-06-14T03:45:43.497Z,96646.71
2018-06-14T03:49:08.123Z,96648.91
2018-06-14T03:52:32.805Z,96654.25
2018-06-14T03:55:57.478Z,96647.59
2018-06-14T03:59:22.092Z,96653.19
2018-06-14T04:02:46.784Z,96657.66
2018-06-14T04:06:11.429Z,96661.40
2018-06-14T04:09:36.098Z,96666.27
2018-06-14T04:13:00.783Z,96661.80
2018-06-14T04:16:26.249Z,96661.45
2018-06-14T04:19:50.885Z,96666.16
2018-06-14T04:23:15.625Z,96656.56
2018-06-14T04:26:40.763Z,96659.34
2018-06-14T04:30:05.156Z,96667.52
2018-06-14T04:33:29.850Z,96670.72
2018-06-14T04:36:54.601Z,96669.42
2018-06-14T04:40:19.407Z,96662.72
2018-06-14T04:43:44.555Z,96670.12
2018-06-14T04:47:09.279Z,96670.86
2018-06-14T04:50:34.147Z,96678.32
2018-06-14T04:53:58.853Z,96671.67
2018-06-14T04:57:23.554Z,96670.37
2018-06-14T05:00:48.287Z,96671.42
2018-06-14T05:04:13.017Z,96669.51
2018-06-14T05:07:37.438Z,96662.22
2018-06-14T05:11:02.131Z,96670.97
2018-06-14T05:14:26.425Z,96664.82
2018-06-14T05:17:51.098Z,96662.55
2018-06-14T05:21:15.919Z,96662.22
2018-06-14T05:24:40.581Z,96669.39
2018-06-14T05:28:05.453Z,96668.77
2018-06-14T05:31:30.202Z,96668.27
2018-06-14T05:34:54.960Z,96673.73
2018-06-14T05:38:19.352Z,96679.94
2018-06-14T05:41:44.053Z,96670.52
2018-06-14T05:45:08.805Z,96676.95
2018-06-14T05:48:33.511Z,96678.88
2018-06-14T05:51:58.305Z,96677.27
2018-06-14T05:55:23.012Z,96680.95
2018-06-14T05:58:47.681Z,96674.74
2018-06-14T06:02:12.306Z,96675.79
2018-06-14T06:05:37.131Z,96673.15
2018-06-14T06:09:02.013Z,96672.10
2018-06-14T06:12:26.331Z,96679.92
2018-06-14T06:15:51.074Z,96677.15
2018-06-14T06:19:15.805Z,96682.47
2018-06-14T06:22:40.418Z,96688.17
2018-06-14T06:26:05.280Z,96686.45
2018-06-14T06:29:30.149Z,96689.06
2018-06-14T06:32:54.739Z,96692.23
2018-06-14T06:36:19.535Z,96687.06
2018-06-14T06:39:44.403Z,96688.88
2018-06-14T06:43:10.225Z,96689.81
2018-06-14T06:46:35.052Z,96691.31
2018-06-14T06:50:00.091Z,96690.03
2018-06-14T06:53:25.148Z,96691.45
2018-06-14T06:56:49.719Z,96692.09
2018-06-14T07:00:14.654Z,96695.08
2018-06-14T07:03:39.436Z,96692.74
2018-06-14T07:07:04.215Z,96703.05
2018-06-14T07:10:30.084Z,96707.00
2018-06-14T07:13:55.094Z,96706.23
2018-06-14T07:17:19.871Z,96700.72
2018-06-14T07:20:45.250Z,96697.08
2018-06-14T07:24:09.586Z,96688.05
2018-06-14T07:27:34.260Z,96690.30
2018-06-14T07:30:59.045Z,96684.27
2018-06-14T07:34:25.057Z,96692.99
2018-06-14T07:37:49.819Z,96688.94
2018-06-14T07:41:16.857Z,96686.84
2018-06-14T07:44:43.043Z,96691.17
2018-06-14T07:48:08.513Z,96688.91
2018-06-14T07:51:34.113Z,96687.53
2018-06-14T07:54:59.958Z,96685.41
2018-06-14T07:58:24.741Z,96685.04
2018-06-14T08:01:49.477Z,96681.41
2018-06-14T08:05:15.089Z,96673.15
2018-06-14T08:08:39.905Z,96673.45
2018-06-14T08:12:04.783Z,96673.09
2018-06-14T08:15:29.506Z,96674.73
2018-06-14T08:18:54.488Z,96677.75
2018-06-14T08:22:19.666Z,96679.80
2018-06-14T08:25:44.430Z,96674.19
2018-06-14T08:29:09.151Z,96678.98
2018-06-14T08:32:34.702Z,96676.27
2018-06-14T08:35:59.168Z,96674.45
2018-06-14T08:39:24.441Z,96670.36
2018-06-14T08:42:48.884Z,96675.94
2018-06-14T08:46:13.589Z,96670.45
2018-06-14T08:49:38.079Z,96670.31
2018-06-14T08:53:02.801Z,96669.30
2018-06-14T08:56:27.132Z,96667.39
2018-06-14T08:59:51.854Z,96663.28
2018-06-14T09:03:16.737Z,96668.36
2018-06-14T09:06:42.654Z,96669.39
2018-06-14T09:10:07.556Z,96676.38
2018-06-14T09:13:32.273Z,96669.80
2018-06-14T09:16:56.993Z,96679.27
2018-06-14T09:20:21.655Z,96679.95
2018-06-14T09:23:46.393Z,96677.00
2018-06-14T09:27:11.125Z,96676.84
2018-06-14T09:30:35.871Z,96678.81
2018-06-14T09:34:00.615Z,96677.09
2018-06-14T09:37:25.359Z,96669.91
2018-06-14T09:40:50.084Z,96672.92
2018-06-14T09:44:14.760Z,96669.54
2018-06-14T09:47:39.643Z,96674.64
2018-06-14T09:51:05.480Z,96672.69
2018-06-14T09:54:30.308Z,96677.71
2018-06-14T09:57:55.253Z,96673.57
2018-06-14T10:01:19.962Z,96669.98
2018-06-14T10:04:44.668Z,96676.00
2018-06-14T10:08:08.968Z,96677.09
2018-06-14T10:11:33.696Z,96679.69
2018-06-14T10:14:58.337Z,96670.13
2018-06-14T10:18:23.325Z,96670.53
2018-06-14T10:21:48.061Z,96672.18
2018-06-14T10:25:12.871Z,96680.73
2018-06-14T10:28:37.518Z,96669.16
2018-06-14T10:32:02.191Z,96663.72
2018-06-14T10:35:26.855Z,96664.27
2018-06-14T10:38:51.717Z,96668.88
2018-06-14T10:42:16.420Z,96663.73
2018-06-14T10:45:41.182Z,96659.20
2018-06-14T10:49:05.864Z,96665.17
2018-06-14T10:52:30.963Z,96666.70
2018-06-14T10:55:55.661Z,96672.52
2018-06-14T11:07:19.336Z,96666.36
2018-06-14T11:10:44.437Z,96672.38
2018-06-14T11:14:10.453Z,96668.15
2018-06-14T11:17:35.145Z,96663.49
2018-06-14T11:20:59.994Z,96657.23
2018-06-14T11:24:24.752Z,96647.88
2018-06-14T11:27:49.491Z,96652.66
2018-06-14T11:31:14.204Z,96652.22
2018-06-14T11:34:41.578Z,96646.23
2018-06-14T11:38:07.815Z,96645.36
2018-06-14T11:41:32.249Z,96640.42
2018-06-14T11:44:57.110Z,96639.90
2018-06-14T11:48:21.887Z,96636.34
2018-06-14T11:51:46.587Z,96634.88
2018-06-14T11:55:11.381Z,96628.33
2018-06-14T11:58:36.368Z,96627.60
2018-06-14T12:02:01.133Z,96632.09
2018-06-14T12:05:25.787Z,96622.27
2018-06-14T12:08:50.560Z,96617.40
2018-06-14T12:12:16.734Z,96614.34
2018-06-14T12:15:41.450Z,96614.23
2018-06-14T12:19:06.183Z,96613.75
2018-06-14T12:22:30.898Z,96604.66
2018-06-14T12:25:55.544Z,96614.65
2018-06-14T12:29:19.951Z,96607.73
2018-06-14T12:32:44.755Z,96597.47
2018-06-14T12:36:09.559Z,96598.87
2018-06-14T12:39:34.330Z,96599.19
2018-06-14T12:42:59.129Z,96591.58
2018-06-14T12:46:23.830Z,96584.80
2018-06-14T12:49:49.638Z,96584.98
2018-06-14T12:53:17.401Z,96593.17
2018-06-14T12:56:43.265Z,96588.54
2018-06-14T13:00:09.364Z,96588.78
2018-06-14T13:03:35.721Z,96589.69
2018-06-14T13:07:00.890Z,96591.80
2018-06-14T13:10:26.839Z,96588.48
2018-06-14T13:13:53.695Z,96580.81
2018-06-14T13:17:18.626Z,96578.09
2018-06-14T13:20:43.440Z,96584.62
2018-06-14T13:24:08.918Z,96587.19
2018-06-14T13:27:34.492Z,96582.46
2018-06-14T13:30:59.224Z,96577.38
2018-06-14T13:34:23.849Z,96587.41
2018-06-14T13:37:50.345Z,96577.23
2018-06-14T13:41:15.294Z,96588.16
2018-06-14T13:44:40.117Z,96581.91
2018-06-14T13:48:04.944Z,96577.52
2018-06-14T13:51:29.664Z,96575.97
2018-06-14T13:54:54.391Z,96570.66
2018-06-14T14:06:18.391Z,96566.06
2018-06-14T14:09:43.378Z,96571.17
2018-06-14T14:13:08.129Z,96573.11
2018-06-14T14:16:35.998Z,96569.01
2018-06-14T14:20:00.809Z,96570.81
2018-06-14T14:23:25.815Z,96564.94
2018-06-14T14:26:50.516Z,96563.45
2018-06-14T14:30:16.217Z,96562.98
2018-06-14T14:33:41.358Z,96567.94
2018-06-14T14:37:06.372Z,96562.59
2018-06-14T14:40:31.164Z,96565.87
2018-06-14T14:43:55.578Z,96557.05
2018-06-14T14:47:20.282Z,96556.69
2018-06-14T14:50:45.164Z,96556.53
2018-06-14T14:54:09.941Z,96553.48
2018-06-14T14:57:34.797Z,96558.53
2018-06-14T15:00:59.523Z,96560.16
2018-06-14T15:04:24.324Z,96555.53
2018-06-14T15:07:49.156Z,96555.58
2018-06-14T15:11:14.074Z,96548.52
2018-06-14T15:14:38.872Z,96550.38
2018-06-14T15:18:03.325Z,96549.34
2018-06-14T15:21:28.052Z,96547.14
2018-06-14T15:24:53.030Z,96547.86
2018-06-14T15:28:17.751Z,96546.97
2018-06-14T15:31:42.256Z,96541.33
2018-06-14T15:35:07.006Z,96547.25
2018-06-14T15:38:31.388Z,96546.09
2018-06-14T15:41:56.238Z,96541.34
2018-06-14T15:45:20.942Z,96538.88
2018-06-14T15:48:45.743Z,96541.65
2018-06-14T15:52:10.597Z,96537.86
2018-06-14T15:56:42.675Z,96543.97
2018-06-14T16:00:07.417Z,96533.17
2018-06-14T16:03:32.225Z,96536.04
2018-06-14T16:06:57.067Z,96533.11
2018-06-14T16:10:21.703Z,96528.03
2018-06-14T16:13:46.374Z,96516.80
2018-06-14T16:17:11.011Z,96533.23
2018-06-14T16:20:35.709Z,96524.72
2018-06-14T16:24:00.385Z,96519.75
2018-06-14T16:27:25.057Z,96521.45
2018-06-14T16:30:49.860Z,96518.80
2018-06-14T16:34:14.519Z,96518.80
2018-06-14T16:37:39.436Z,96521.77
2018-06-14T16:41:04.088Z,96520.10
2018-06-14T16:44:28.836Z,96527.09
2018-06-14T16:47:53.463Z,96518.48
2018-06-14T16:51:18.274Z,96520.94
2018-06-14T16:54:42.722Z,96529.58
2018-06-14T16:58:07.453Z,96523.03
2018-06-14T17:01:32.247Z,96521.47
2018-06-14T17:04:57.062Z,96525.08
2018-06-14T17:08:21.732Z,96521.43
2018-06-14T17:11:46.434Z,96528.41
2018-06-14T17:15:11.142Z,96526.02
2018-06-14T17:18:35.458Z,96525.77
2018-06-14T17:22:00.166Z,96532.06
2018-06-14T17:25:24.913Z,96537.54
2018-06-14T17:28:49.614Z,96540.83
2018-06-14T17:32:14.236Z,96540.98
2018-06-14T17:35:39.123Z,96551.58
2018-06-14T17:39:04.182Z,96547.34
2018-06-14T17:42:28.543Z,96553.51
2018-06-14T17:45:53.290Z,96554.86
2018-06-14T17:49:18.279Z,96552.31
2018-06-14T17:52:43.101Z,96557.47
2018-06-14T17:56:08.064Z,96559.61
2018-06-14T17:59:32.810Z,96556.59
2018-06-14T18:02:57.684Z,96565.23
2018-06-14T18:06:22.602Z,96560.27
2018-06-14T18:14:18.497Z,96569.73
2018-06-14T18:17:43.437Z,96572.00
2018-06-14T18:21:07.975Z,96569.48
2018-06-14T18:24:33.507Z,96574.28
2018-06-14T18:27:58.529Z,96582.89
2018-06-14T18:31:23.487Z,96582.91
2018-06-14T18:34:49.461Z,96592.71
2018-06-14T18:38:14.336Z,96590.97
2018-06-14T18:41:39.290Z,96591.45
2018-06-14T18:45:04.119Z,96596.05
2018-06-14T18:48:28.536Z,96603.08
2018-06-14T18:51:53.298Z,96605.66
2018-06-14T18:55:18.143Z,96603.20
2018-06-14T18:58:42.910Z,96609.30
2018-06-14T19:02:07.645Z,96606.97
2018-06-14T19:05:32.465Z,96610.84
2018-06-14T19:08:57.347Z,96620.70
2018-06-14T19:12:22.534Z,96617.86
2018-06-14T19:15:47.383Z,96623.77
2018-06-14T19:19:12.112Z,96629.77
2018-06-14T19:22:36.934Z,96638.55
2018-06-14T19:26:01.625Z,96641.75
2018-06-14T19:29:26.311Z,96643.02
2018-06-14T19:32:51.267Z,96647.52
2018-06-14T19:36:16.101Z,96652.84
2018-06-14T19:39:40.814Z,96660.23
2018-06-14T19:43:05.840Z,96669.08
2018-06-14T19:46:30.629Z,96675.63
2018-06-14T19:49:55.327Z,96679.30
2018-06-14T19:53:20.022Z,96679.33
2018-06-14T19:56:44.824Z,96685.27
2018-06-14T20:00:09.294Z,96694.22
2018-06-14T20:03:33.995Z,96693.64
2018-06-14T20:06:58.635Z,96697.07
2018-06-14T20:10:23.314Z,96693.34
2018-06-14T20:13:47.958Z,96708.02
2018-06-14T20:17:12.734Z,96701.20
2018-06-14T20:20:38.183Z,96708.80
2018-06-14T20:24:04.488Z,96709.66
2018-06-14T20:27:30.381Z,96713.68
2018-06-14T20:30:55.749Z,96719.47
2018-06-14T20:34:20.541Z,96718.45
2018-06-14T20:37:48.770Z,96715.19
2018-06-14T20:41:14.290Z,96716.71
2018-06-14T20:44:41.164Z,96724.89
2018-06-14T20:48:06.558Z,96716.98
2018-06-14T20:51:31.840Z,96714.20
2018-06-14T20:54:58.090Z,96724.78
2018-06-14T20:58:23.329Z,96727.06
2018-06-14T21:01:48.028Z,96727.84
2018-06-14T21:05:12.685Z,96726.09
2018-06-14T21:08:37.570Z,96737.00
2018-06-14T21:12:01.924Z,96736.22
2018-06-14T21:15:26.265Z,96739.73
2018-06-14T21:18:51.069Z,96745.58
2018-06-14T21:22:15.852Z,96735.81
2018-06-14T21:25:40.573Z,96736.18
2018-06-14T21:29:05.249Z,96732.06
2018-06-14T21:32:30.134Z,96745.61
2018-06-14T21:35:54.833Z,96744.72
2018-06-14T21:39:19.479Z,96755.50
2018-06-14T21:42:44.176Z,96749.53
2018-06-14T21:46:08.537Z,96753.44
2018-06-14T21:49:33.231Z,96755.90
2018-06-14T21:52:57.955Z,96748.22
2018-06-14T21:56:22.296Z,96752.77
2018-06-14T21:59:47.199Z,96750.32
2018-06-14T22:03:17.431Z,96750.50
2018-06-14T22:06:44.838Z,96743.38
2018-06-14T22:10:09.540Z,96740.63
2018-06-14T22:13:34.764Z,96746.71
2018-06-14T22:17:01.002Z,96757.38
2018-06-14T22:20:26.283Z,96748.10
2018-06-14T22:23:52.652Z,96751.34
2018-06-14T22:27:18.301Z,96754.84
2018-06-14T22:30:43.537Z,96759.39
2018-06-14T22:34:25.699Z,96760.91
2018-06-14T22:37:50.391Z,96760.53
2018-06-14T22:41:15.374Z,96757.16
2018-06-14T22:44:40.177Z,96759.61
2018-06-14T22:48:05.333Z,96755.48
2018-06-14T22:51:45.856Z,96751.97
2018-06-14T22:55:10.508Z,96751.60
2018-06-14T22:58:35.328Z,96741.78
2018-06-14T23:02:00.034Z,96737.78
2018-06-14T23:05:24.634Z,96737.56
2018-06-14T23:08:49.391Z,96737.31
2018-06-14T23:12:14.082Z,96734.91
2018-06-14T23:15:38.870Z,96737.66
2018-06-14T23:19:03.599Z,96736.88
2018-06-14T23:22:28.294Z,96732.92
2018-06-14T23:25:52.939Z,96731.41
2018-06-14T23:29:17.638Z,96729.69
2018-06-14T23:32:42.309Z,96726.53
2018-06-14T23:36:06.966Z,96720.11
2018-06-14T23:39:31.563Z,96722.01
2018-06-14T23:42:56.166Z,96720.98
2018-06-14T23:46:20.787Z,96714.28
2018-06-14T23:49:45.379Z,96720.16
2018-06-14T23:53:10.073Z,96718.10
2018-06-14T23:56:34.760Z,96711.45
2018-06-14T23:59:59.360Z,96717.75
